createdAt,value
2018-12-02T00:00:14.736Z,11.28
2018-12-02T00:00:55.103Z,11.19
2018-12-02T00:01:35.540Z,11.17
2018-12-02T00:02:15.889Z,11.26
2018-12-02T00:02:56.349Z,11.2
2018-12-02T00:03:36.709Z,11.16
2018-12-02T00:04:17.177Z,11.21
2018-12-02T00:04:57.462Z,11.21
2018-12-02T00:05:37.868Z,11.2
2018-12-02T00:06:18.293Z,11.2
2018-12-02T00:06:58.690Z,11.2
2018-12-02T00:07:39.059Z,11.19
2018-12-02T00:08:19.466Z,11.2
2018-12-02T00:08:59.938Z,11.21
2018-12-02T00:09:40.324Z,11.19
2018-12-02T00:10:20.684Z,11.23
2018-12-02T00:11:01.064Z,11.21
2018-12-02T00:11:41.495Z,11.2
2018-12-02T00:12:21.877Z,11.17
2018-12-02T00:13:02.308Z,11.21
2018-12-02T00:13:42.686Z,11.2
2018-12-02T00:14:23.165Z,11.23
2018-12-02T00:15:03.427Z,11.19
2018-12-02T00:15:44.010Z,11.21
2018-12-02T00:16:24.392Z,11.21
2018-12-02T00:17:04.822Z,11.2
2018-12-02T00:17:45.165Z,11.21
2018-12-02T00:18:25.517Z,11.23
2018-12-02T00:19:05.965Z,11.17
2018-12-02T00:19:46.405Z,11.21
2018-12-02T00:20:26.773Z,11.23
2018-12-02T00:21:07.944Z,11.24
2018-12-02T00:21:48.491Z,11.19
2018-12-02T00:22:30.424Z,11.2
2018-12-02T00:23:10.803Z,11.17
2018-12-02T00:23:51.146Z,11.24
2018-12-02T00:24:31.538Z,11.27
2018-12-02T00:25:11.994Z,11.27
2018-12-02T00:25:52.344Z,11.24
2018-12-02T00:26:32.753Z,11.27
2018-12-02T00:27:13.236Z,11.27
2018-12-02T00:27:53.628Z,11.31
2018-12-02T00:28:33.972Z,11.33
2018-12-02T00:29:14.353Z,11.27
2018-12-02T00:29:54.753Z,11.33
2018-12-02T00:30:35.139Z,11.3
2018-12-02T00:31:15.521Z,11.38
2018-12-02T00:31:55.941Z,11.38
2018-12-02T00:32:36.394Z,11.35
2018-12-02T00:33:16.776Z,11.44
2018-12-02T00:33:57.133Z,11.33
2018-12-02T00:34:37.565Z,11.33
2018-12-02T00:35:17.963Z,11.39
2018-12-02T00:35:58.532Z,11.36
2018-12-02T00:36:38.827Z,11.33
2018-12-02T00:37:19.287Z,11.38
2018-12-02T00:37:59.769Z,11.35
2018-12-02T00:38:40.171Z,11.46
2018-12-02T00:39:20.583Z,11.33
2018-12-02T00:40:01.003Z,11.35
2018-12-02T00:40:41.325Z,11.39
2018-12-02T00:41:21.814Z,11.36
2018-12-02T00:42:02.186Z,11.44
2018-12-02T00:42:42.577Z,11.41
2018-12-02T00:43:22.998Z,11.42
2018-12-02T00:44:03.378Z,11.39
2018-12-02T00:44:43.735Z,11.48
2018-12-02T00:45:24.181Z,11.45
2018-12-02T00:46:04.529Z,11.41
2018-12-02T00:46:44.892Z,11.46
2018-12-02T00:47:25.331Z,11.46
2018-12-02T00:48:05.641Z,11.51
2018-12-02T00:48:46.127Z,11.44
2018-12-02T00:49:26.543Z,11.48
2018-12-02T00:50:06.955Z,11.49
2018-12-02T00:50:47.318Z,11.42
2018-12-02T00:51:27.709Z,11.45
2018-12-02T00:52:08.087Z,11.44
2018-12-02T00:52:49.110Z,11.57
2018-12-02T00:53:29.493Z,11.51
2018-12-02T00:54:09.850Z,11.48
2018-12-02T00:54:50.270Z,11.53
2018-12-02T00:55:30.659Z,11.59
2018-12-02T00:56:11.062Z,11.49
2018-12-02T00:56:53.686Z,11.44
2018-12-02T00:57:34.064Z,11.54
2018-12-02T00:58:14.425Z,11.56
2018-12-02T00:58:54.825Z,11.54
2018-12-02T00:59:35.158Z,11.45
2018-12-02T01:00:15.687Z,11.57
2018-12-02T01:00:56.019Z,11.48
2018-12-02T01:01:38.295Z,11.45
2018-12-02T01:02:18.964Z,11.46
2018-12-02T01:02:59.371Z,11.45
2018-12-02T01:03:39.707Z,11.48
2018-12-02T01:04:20.061Z,11.57
2018-12-02T01:05:00.527Z,11.53
2018-12-02T01:05:40.914Z,11.56
2018-12-02T01:06:21.335Z,11.45
2018-12-02T01:07:01.681Z,11.44
2018-12-02T01:07:42.109Z,11.48
2018-12-02T01:08:22.479Z,11.46
2018-12-02T01:09:02.857Z,11.48
2018-12-02T01:09:43.290Z,11.45
2018-12-02T01:10:23.820Z,11.49
2018-12-02T01:11:04.103Z,11.49
2018-12-02T01:11:44.542Z,11.57
2018-12-02T01:12:24.896Z,11.46
2018-12-02T01:13:05.258Z,11.54
2018-12-02T01:13:46.208Z,11.53
2018-12-02T01:14:26.595Z,11.48
2018-12-02T01:15:06.978Z,11.53
2018-12-02T01:15:47.397Z,11.53
2018-12-02T01:16:27.809Z,11.53
2018-12-02T01:17:08.365Z,11.59
2018-12-02T01:17:48.636Z,11.56
2018-12-02T01:18:29.069Z,11.6
2018-12-02T01:19:10.269Z,11.54
2018-12-02T01:19:50.685Z,11.53
2018-12-02T01:20:32.617Z,11.57
2018-12-02T01:21:13.059Z,11.56
2018-12-02T01:21:53.454Z,11.63
2018-12-02T01:22:34.006Z,11.59
2018-12-02T01:23:14.390Z,11.62
2018-12-02T01:23:54.788Z,11.63
2018-12-02T01:24:35.205Z,11.62
2018-12-02T01:25:15.528Z,11.6
2018-12-02T01:25:55.991Z,11.6
2018-12-02T01:26:36.506Z,11.7
2018-12-02T01:27:16.863Z,11.6
2018-12-02T01:27:57.289Z,11.59
2018-12-02T01:28:37.702Z,11.59
2018-12-02T01:29:18.062Z,11.57
2018-12-02T01:29:58.458Z,11.66
2018-12-02T01:30:38.909Z,11.67
2018-12-02T01:31:19.252Z,11.7
2018-12-02T01:31:59.647Z,11.64
2018-12-02T01:32:39.983Z,11.64
2018-12-02T01:33:21.353Z,11.63
2018-12-02T01:34:01.745Z,11.69
2018-12-02T01:34:42.106Z,11.66
2018-12-02T01:35:22.854Z,11.66
2018-12-02T01:36:03.006Z,11.63
2018-12-02T01:36:43.392Z,11.66
2018-12-02T01:37:23.769Z,11.64
2018-12-02T01:38:04.258Z,11.64
2018-12-02T01:38:44.616Z,11.64
2018-12-02T01:39:25.031Z,11.6
2018-12-02T01:40:05.332Z,11.66
2018-12-02T01:40:45.749Z,11.69
2018-12-02T01:41:26.179Z,11.72
2018-12-02T01:42:07.427Z,11.64
2018-12-02T01:42:47.734Z,11.59
2018-12-02T01:43:28.220Z,11.66
2018-12-02T01:44:08.596Z,11.72
2018-12-02T01:44:49.043Z,11.67
2018-12-02T01:45:29.406Z,11.59
2018-12-02T01:46:09.773Z,11.62
2018-12-02T01:46:50.137Z,11.67
2018-12-02T01:47:30.552Z,11.66
2018-12-02T01:48:10.967Z,11.66
2018-12-02T01:48:51.309Z,11.6
2018-12-02T01:49:31.766Z,11.64
2018-12-02T01:50:12.132Z,11.63
2018-12-02T01:50:52.473Z,11.64
2018-12-02T01:51:32.873Z,11.53
2018-12-02T01:52:13.251Z,11.62
2018-12-02T01:52:53.732Z,11.69
2018-12-02T01:53:34.105Z,11.64
2018-12-02T01:54:14.503Z,11.56
2018-12-02T01:54:54.904Z,11.57
2018-12-02T01:55:35.196Z,11.62
2018-12-02T01:56:15.673Z,11.6
2018-12-02T01:56:56.013Z,11.6
2018-12-02T01:57:36.422Z,11.64
2018-12-02T01:58:16.868Z,11.63
2018-12-02T01:58:57.231Z,11.64
2018-12-02T01:59:37.590Z,11.63
2018-12-02T02:00:18.015Z,11.59
2018-12-02T02:00:58.412Z,11.48
2018-12-02T02:01:38.770Z,11.49
2018-12-02T02:02:19.124Z,11.53
2018-12-02T02:02:59.579Z,11.49
2018-12-02T02:03:39.960Z,11.51
2018-12-02T02:04:20.413Z,11.49
2018-12-02T02:05:00.738Z,11.51
2018-12-02T02:05:41.213Z,11.49
2018-12-02T02:06:21.573Z,11.49
2018-12-02T02:07:02.046Z,11.45
2018-12-02T02:07:42.366Z,11.44
2018-12-02T02:08:22.789Z,11.42
2018-12-02T02:09:03.206Z,11.45
2018-12-02T02:09:43.598Z,11.44
2018-12-02T02:10:23.979Z,11.46
2018-12-02T02:11:04.365Z,11.42
2018-12-02T02:11:44.754Z,11.49
2018-12-02T02:12:25.642Z,11.46
2018-12-02T02:13:05.569Z,11.45
2018-12-02T02:13:46.006Z,11.51
2018-12-02T02:14:26.469Z,11.53
2018-12-02T02:15:06.778Z,11.54
2018-12-02T02:15:47.227Z,11.45
2018-12-02T02:16:27.576Z,11.49
2018-12-02T02:17:07.959Z,11.46
2018-12-02T02:17:48.434Z,11.59
2018-12-02T02:18:28.760Z,11.59
2018-12-02T02:19:09.268Z,11.62
2018-12-02T02:19:49.505Z,11.56
2018-12-02T02:20:29.942Z,11.56
2018-12-02T02:21:10.331Z,11.59
2018-12-02T02:21:50.731Z,11.51
2018-12-02T02:22:31.087Z,11.57
2018-12-02T02:23:11.441Z,11.57
2018-12-02T02:23:51.844Z,11.56
2018-12-02T02:24:32.364Z,11.48
2018-12-02T02:25:12.723Z,11.49
2018-12-02T02:25:52.981Z,11.53
2018-12-02T02:26:33.472Z,11.45
2018-12-02T02:27:13.834Z,11.36
2018-12-02T02:27:54.258Z,11.31
2018-12-02T02:28:34.608Z,11.36
2018-12-02T02:29:15.000Z,11.38
2018-12-02T02:29:55.403Z,11.31
2018-12-02T02:30:35.774Z,11.24
2018-12-02T02:31:16.182Z,11.23
2018-12-02T02:31:56.555Z,11.13
2018-12-02T02:32:36.958Z,11.19
2018-12-02T02:33:17.305Z,11.2
2018-12-02T02:33:57.872Z,11.11
2018-12-02T02:34:38.373Z,11.19
2018-12-02T02:35:18.691Z,11.09
2018-12-02T02:35:59.874Z,11.11
2018-12-02T02:36:40.441Z,11.01
2018-12-02T02:37:20.917Z,11.11
2018-12-02T02:38:02.197Z,10.94
2018-12-02T02:38:42.495Z,10.87
2018-12-02T02:39:22.914Z,10.83
2018-12-02T02:40:03.497Z,10.68
2018-12-02T02:40:43.844Z,10.55
2018-12-02T02:41:24.305Z,10.57
2018-12-02T02:42:04.713Z,10.54
2018-12-02T02:42:45.134Z,10.44
2018-12-02T02:43:25.454Z,10.32
2018-12-02T02:44:05.811Z,10.35
2018-12-02T02:44:51.160Z,10.36
2018-12-02T02:45:31.679Z,10.36
2018-12-02T02:46:11.978Z,10.28
2018-12-02T02:46:52.476Z,10.24
2018-12-02T02:47:32.882Z,10.29
2018-12-02T02:48:13.310Z,10.22
2018-12-02T02:48:54.742Z,10.22
2018-12-02T02:49:35.465Z,10.25
2018-12-02T02:50:16.008Z,10.25
2018-12-02T02:50:56.370Z,10.26
2018-12-02T02:51:37.056Z,10.18
2018-12-02T02:52:17.977Z,10.24
2018-12-02T02:52:58.264Z,10.17
2018-12-02T02:53:39.546Z,10.25
2018-12-02T02:54:19.748Z,10.17
2018-12-02T02:55:00.662Z,10.13
2018-12-02T02:55:42.827Z,10.1
2018-12-02T02:56:25.539Z,10.04
2018-12-02T02:57:06.251Z,10.02
2018-12-02T02:57:48.601Z,10.04
2018-12-02T02:58:29.267Z,10.09
2018-12-02T02:59:10.900Z,10.01
2018-12-02T02:59:54.805Z,10.06
2018-12-02T03:00:37.097Z,10.02
2018-12-02T03:01:20.253Z,9.98
2018-12-02T03:02:03.013Z,10.04
2018-12-02T03:02:45.344Z,9.98
2018-12-02T03:03:27.460Z,10.02
2018-12-02T03:04:10.843Z,9.99
2018-12-02T03:04:53.131Z,9.96
2018-12-02T03:05:37.960Z,10.04
2018-12-02T03:06:32.168Z,10.01
2018-12-02T03:08:32.965Z,10.02
2018-12-02T03:09:13.938Z,10.01
2018-12-02T03:12:17.876Z,9.96
2018-12-02T03:12:58.012Z,9.99
2018-12-02T03:13:38.415Z,9.88
2018-12-02T03:14:18.788Z,9.91
2018-12-02T03:14:59.176Z,9.96
2018-12-02T03:15:39.617Z,9.93
2018-12-02T03:16:20.024Z,9.91
2018-12-02T03:17:00.612Z,9.89
2018-12-02T03:17:40.912Z,9.96
2018-12-02T03:18:21.317Z,9.98
2018-12-02T03:19:01.761Z,9.89
2018-12-02T03:19:42.196Z,9.92
2018-12-02T03:20:22.576Z,9.96
2018-12-02T03:21:02.995Z,9.92
2018-12-02T03:21:43.530Z,9.89
2018-12-02T03:22:23.923Z,9.86
2018-12-02T03:23:04.401Z,9.85
2018-12-02T03:23:44.700Z,9.89
2018-12-02T03:24:25.238Z,9.85
2018-12-02T03:25:05.507Z,9.91
2018-12-02T03:25:45.867Z,9.85
2018-12-02T03:26:26.491Z,9.78
2018-12-02T03:27:06.686Z,9.89
2018-12-02T03:27:47.284Z,9.83
2018-12-02T03:28:27.612Z,9.8
2018-12-02T03:29:08.036Z,9.78
2018-12-02T03:31:05.688Z,9.88
2018-12-02T03:31:47.032Z,9.78
2018-12-02T03:32:27.421Z,9.85
2018-12-02T03:33:07.841Z,9.86
2018-12-02T03:33:48.225Z,9.88
2018-12-02T03:34:28.647Z,9.85
2018-12-02T03:35:09.381Z,9.91
2018-12-02T03:37:23.923Z,9.92
2018-12-02T03:38:05.948Z,9.92
2018-12-02T03:38:46.254Z,9.89
2018-12-02T03:39:26.638Z,9.88
2018-12-02T03:40:07.095Z,9.81
2018-12-02T03:40:47.501Z,9.89
2018-12-02T03:41:27.910Z,9.89
2018-12-02T03:42:08.288Z,9.89
2018-12-02T03:42:48.730Z,9.89
2018-12-02T03:43:29.097Z,9.85
2018-12-02T03:44:09.675Z,9.96
2018-12-02T03:44:50.058Z,9.93
2018-12-02T03:45:30.407Z,9.93
2018-12-02T03:46:10.972Z,9.96
2018-12-02T03:46:51.344Z,9.92
2018-12-02T03:47:31.699Z,9.98
2018-12-02T03:48:12.081Z,9.91
2018-12-02T03:48:52.436Z,9.93
2018-12-02T03:49:33.067Z,9.91
2018-12-02T03:51:46.059Z,9.99
2018-12-02T03:52:26.776Z,9.95
2018-12-02T03:53:07.154Z,9.93
2018-12-02T03:53:47.540Z,10.04
2018-12-02T03:55:24.751Z,9.99
2018-12-02T03:56:08.645Z,10.02
2018-12-02T03:56:48.932Z,9.95
2018-12-02T03:57:29.476Z,9.96
2018-12-02T03:58:09.794Z,10.04
2018-12-02T03:58:50.325Z,10.01
2018-12-02T03:59:30.737Z,10.07
2018-12-02T04:00:11.171Z,9.98
2018-12-02T04:00:51.574Z,10.02
2018-12-02T04:01:32.099Z,10.02
2018-12-02T04:02:12.502Z,10.04
2018-12-02T04:02:53.044Z,10.02
2018-12-02T04:03:33.412Z,9.98
2018-12-02T04:04:13.908Z,10.06
2018-12-02T04:04:54.358Z,10.02
2018-12-02T04:05:34.786Z,10.07
2018-12-02T04:06:15.189Z,10.01
2018-12-02T04:06:55.556Z,9.99
2018-12-02T04:07:36.067Z,10.02
2018-12-02T04:08:16.569Z,10.01
2018-12-02T04:08:56.975Z,10.01
2018-12-02T04:09:37.342Z,10.01
2018-12-02T04:10:17.801Z,10.06
2018-12-02T04:10:58.138Z,10.02
2018-12-02T04:11:38.710Z,9.98
2018-12-02T04:12:19.033Z,9.98
2018-12-02T04:12:59.821Z,9.99
2018-12-02T04:13:40.345Z,10.06
2018-12-02T04:14:20.737Z,9.98
2018-12-02T04:15:01.049Z,10.02
2018-12-02T04:15:41.453Z,10.01
2018-12-02T04:16:21.841Z,9.98
2018-12-02T04:17:02.339Z,10.01
2018-12-02T04:17:42.626Z,10.02
2018-12-02T04:18:23.079Z,10.02
2018-12-02T04:19:03.527Z,9.95
2018-12-02T04:19:43.882Z,10.01
2018-12-02T04:20:24.275Z,9.99
2018-12-02T04:21:04.686Z,9.98
2018-12-02T04:21:45.072Z,10.04
2018-12-02T04:22:25.648Z,10.02
2018-12-02T04:23:05.903Z,9.98
2018-12-02T04:23:46.426Z,10.01
2018-12-02T04:24:26.769Z,9.98
2018-12-02T04:26:40.254Z,10.02
2018-12-02T04:27:21.685Z,9.99
2018-12-02T05:12:20.926Z,9.86
2018-12-02T05:13:04.940Z,9.99
2018-12-02T05:13:46.199Z,9.92
2018-12-02T05:14:26.596Z,9.96
2018-12-02T05:15:06.941Z,9.95
2018-12-02T05:15:47.340Z,9.99
2018-12-02T05:16:27.780Z,9.99
2018-12-02T05:17:08.213Z,9.92
2018-12-02T05:17:48.613Z,10.02
2018-12-02T05:18:28.992Z,10.01
2018-12-02T05:19:09.406Z,10.04
2018-12-02T05:19:49.791Z,9.98
2018-12-02T05:20:30.334Z,10.06
2018-12-02T05:21:10.687Z,10.13
2018-12-02T05:21:51.054Z,10.09
2018-12-02T05:22:31.467Z,10.13
2018-12-02T05:23:11.952Z,10.1
2018-12-02T05:23:52.479Z,10.17
2018-12-02T05:24:32.889Z,10.11
2018-12-02T05:25:17.290Z,10.22
2018-12-02T05:25:54.071Z,10.17
2018-12-02T05:26:34.466Z,10.2
2018-12-02T05:27:14.857Z,10.18
2018-12-02T05:27:55.490Z,10.22
2018-12-02T05:28:35.769Z,10.25
2018-12-02T05:29:16.201Z,10.18
2018-12-02T05:31:06.227Z,10.22
2018-12-02T05:31:44.670Z,10.28
2018-12-02T05:32:25.263Z,10.28
2018-12-02T05:33:05.565Z,10.26
2018-12-02T05:33:46.066Z,10.28
2018-12-02T05:34:26.425Z,10.26
2018-12-02T05:35:06.835Z,10.29
2018-12-02T05:35:47.283Z,10.34
2018-12-02T05:36:27.674Z,10.35
2018-12-02T05:37:08.077Z,10.28
2018-12-02T05:37:48.942Z,10.35
2018-12-02T05:38:29.211Z,10.32
2018-12-02T05:39:09.572Z,10.32
2018-12-02T05:39:49.914Z,10.28
2018-12-02T05:40:30.452Z,10.39
2018-12-02T05:41:10.928Z,10.43
2018-12-02T05:41:51.257Z,10.42
2018-12-02T05:42:31.747Z,10.49
2018-12-02T05:43:12.186Z,10.46
2018-12-02T05:43:52.542Z,10.43
2018-12-02T05:44:33.089Z,10.54
2018-12-02T05:45:13.549Z,10.46
2018-12-02T05:45:54.009Z,10.44
2018-12-02T05:46:34.471Z,10.42
2018-12-02T05:47:14.881Z,10.43
2018-12-02T05:47:55.325Z,10.51
2018-12-02T05:48:35.730Z,10.49
2018-12-02T05:49:16.251Z,10.46
2018-12-02T05:49:56.473Z,10.47
2018-12-02T05:50:36.935Z,10.47
2018-12-02T05:51:17.637Z,10.42
2018-12-02T05:51:58.041Z,10.46
2018-12-02T05:52:38.498Z,10.46
2018-12-02T05:53:18.886Z,10.42
2018-12-02T05:53:59.308Z,10.46
2018-12-02T05:54:39.906Z,10.43
2018-12-02T05:55:20.225Z,10.47
2018-12-02T05:56:00.721Z,10.49
2018-12-02T05:56:41.153Z,10.39
2018-12-02T05:57:21.764Z,10.49
2018-12-02T05:58:01.961Z,10.44
2018-12-02T05:58:42.467Z,10.43
2018-12-02T05:59:22.937Z,10.49
2018-12-02T06:00:03.279Z,10.44
2018-12-02T06:00:43.658Z,10.44
2018-12-02T06:01:24.098Z,10.46
2018-12-02T06:02:04.649Z,10.46
2018-12-02T06:02:45.052Z,10.54
2018-12-02T06:03:25.619Z,10.46
2018-12-02T06:04:05.964Z,10.46
2018-12-02T06:04:46.437Z,10.42
2018-12-02T06:05:26.804Z,10.46
2018-12-02T06:06:07.260Z,10.51
2018-12-02T06:06:47.916Z,10.47
2018-12-02T06:07:28.172Z,10.52
2018-12-02T06:08:08.601Z,10.54
2018-12-02T06:08:49.851Z,10.6
2018-12-02T06:09:30.050Z,10.57
2018-12-02T06:10:10.117Z,10.62
2018-12-02T06:10:50.484Z,10.6
2018-12-02T06:11:30.894Z,10.54
2018-12-02T06:12:11.294Z,10.65
2018-12-02T06:12:51.805Z,10.66
2018-12-02T06:13:32.423Z,10.63
2018-12-02T06:14:12.714Z,10.73
2018-12-02T06:14:53.342Z,10.7
2018-12-02T06:15:33.711Z,10.72
2018-12-02T06:16:14.115Z,10.7
2018-12-02T06:16:54.500Z,10.66
2018-12-02T06:17:34.906Z,10.68
2018-12-02T06:18:15.413Z,10.72
2018-12-02T06:18:56.151Z,10.76
2018-12-02T06:19:36.624Z,10.87
2018-12-02T06:20:17.027Z,10.81
2018-12-02T06:20:57.323Z,10.84
2018-12-02T06:21:37.871Z,10.94
2018-12-02T06:22:18.290Z,10.87
2018-12-02T06:22:58.717Z,10.88
2018-12-02T06:23:39.127Z,10.86
2018-12-02T06:25:46.407Z,11.05
2018-12-02T06:26:29.376Z,10.9
2018-12-02T06:27:12.970Z,10.94
2018-12-02T06:27:53.375Z,11.01
2018-12-02T06:28:33.783Z,10.95
2018-12-02T06:30:53.722Z,11.12
2018-12-02T06:31:45.492Z,11.11
2018-12-02T06:32:37.834Z,11.13
2018-12-02T06:33:29.933Z,11.13
2018-12-02T06:34:23.595Z,11.16
2018-12-02T06:35:15.792Z,11.21
2018-12-02T06:36:08.056Z,11.23
2018-12-02T06:37:00.595Z,11.17
2018-12-02T06:37:52.633Z,11.27
2018-12-02T06:38:45.049Z,11.28
2018-12-02T06:39:37.416Z,11.33
2018-12-02T06:40:29.717Z,11.38
2018-12-02T06:41:22.681Z,11.41
2018-12-02T06:42:15.604Z,11.54
2018-12-02T06:43:08.143Z,11.56
2018-12-02T06:44:00.503Z,11.62
2018-12-02T06:44:52.610Z,11.64
2018-12-02T06:45:45.127Z,11.72
2018-12-02T06:46:37.181Z,11.64
2018-12-02T06:47:28.974Z,11.69
2018-12-02T06:48:21.094Z,11.67
2018-12-02T06:49:13.704Z,11.67
2018-12-02T06:50:05.774Z,11.75
2018-12-02T06:50:57.949Z,11.69
2018-12-02T06:51:50.283Z,11.6
2018-12-02T06:52:42.828Z,11.66
2018-12-02T06:53:35.096Z,11.53
2018-12-02T06:54:27.562Z,11.54
2018-12-02T06:55:19.802Z,11.62
2018-12-02T06:56:12.397Z,11.54
2018-12-02T06:57:05.254Z,11.51
2018-12-02T06:57:57.034Z,11.53
2018-12-02T06:58:49.645Z,11.46
2018-12-02T06:59:42.532Z,11.53
2018-12-02T07:00:34.667Z,11.6
2018-12-02T07:01:28.875Z,11.54
2018-12-02T07:02:21.162Z,11.53
2018-12-02T07:03:14.165Z,11.53
2018-12-02T07:04:07.735Z,11.49
2018-12-02T07:05:00.169Z,11.57
2018-12-02T07:05:53.229Z,11.56
2018-12-02T07:06:46.494Z,11.53
2018-12-02T07:07:39.626Z,11.59
2018-12-02T07:08:32.227Z,11.63
2018-12-02T07:09:25.249Z,11.62
2018-12-02T07:10:21.406Z,11.63
2018-12-02T07:11:32.113Z,11.7
2018-12-02T07:12:26.079Z,11.62
2018-12-02T07:13:20.121Z,11.64
2018-12-02T07:14:59.286Z,11.56
2018-12-02T07:15:40.276Z,11.49
2018-12-02T07:16:20.665Z,11.38
2018-12-02T07:17:01.109Z,11.36
2018-12-02T07:17:41.481Z,11.38
2018-12-02T07:18:21.886Z,11.3
2018-12-02T07:19:02.230Z,11.38
2018-12-02T07:19:42.728Z,11.31
2018-12-02T07:20:23.842Z,11.26
2018-12-02T07:21:04.211Z,11.23
2018-12-02T07:21:44.572Z,11.23
2018-12-02T07:22:24.961Z,11.17
2018-12-02T07:23:05.361Z,11.21
2018-12-02T07:23:45.750Z,11.17
2018-12-02T07:24:26.094Z,11.2
2018-12-02T07:25:06.532Z,11.24
2018-12-02T07:25:46.958Z,11.16
2018-12-02T07:26:27.507Z,11.2
2018-12-02T07:27:07.944Z,11.21
2018-12-02T07:27:48.339Z,11.19
2018-12-02T07:28:28.741Z,11.2
2018-12-02T07:29:09.182Z,11.17
2018-12-02T07:31:00.565Z,11.23
2018-12-02T07:32:59.910Z,11.3
2018-12-02T07:33:40.258Z,11.24
2018-12-02T07:34:20.725Z,11.28
2018-12-02T07:35:01.098Z,11.35
2018-12-02T07:36:52.868Z,11.42
2018-12-02T07:37:51.507Z,11.46
2018-12-02T07:38:44.976Z,11.44
2018-12-02T07:39:38.302Z,11.6
2018-12-02T07:40:31.002Z,11.6
2018-12-02T07:41:23.704Z,11.66
2018-12-02T07:42:21.412Z,11.81
2018-12-02T07:43:13.701Z,11.74
2018-12-02T07:44:07.145Z,11.81
2018-12-02T07:44:59.720Z,11.82
2018-12-02T07:45:52.606Z,11.9
2018-12-02T07:46:44.714Z,11.97
2018-12-02T07:47:36.738Z,11.9
2018-12-02T07:48:30.281Z,11.98
2018-12-02T07:49:25.663Z,12
2018-12-02T07:50:17.521Z,11.9
2018-12-02T07:51:12.368Z,12.08
2018-12-02T07:52:02.821Z,12
2018-12-02T07:52:43.532Z,12.05
2018-12-02T07:53:23.879Z,12.12
2018-12-02T07:54:04.682Z,12.15
2018-12-02T07:54:46.116Z,12.04
2018-12-02T07:55:28.097Z,12.12
2018-12-02T07:56:08.485Z,12.12
2018-12-02T07:56:49.032Z,12
2018-12-02T07:57:29.950Z,12.07
2018-12-02T07:58:10.249Z,12.01
2018-12-02T07:58:51.344Z,11.94
2018-12-02T07:59:31.676Z,12.03
2018-12-02T08:00:12.178Z,12.11
2018-12-02T08:00:52.509Z,12.08
2018-12-02T08:01:32.920Z,11.96
2018-12-02T08:02:13.517Z,12.08
2018-12-02T08:02:53.910Z,12.15
2018-12-02T08:03:34.339Z,12.18
2018-12-02T08:04:14.803Z,12.15
2018-12-02T08:04:55.893Z,12.16
2018-12-02T08:05:36.412Z,12.21
2018-12-02T08:06:16.835Z,12.22
2018-12-02T08:06:57.673Z,12.16
2018-12-02T08:07:41.617Z,12.11
2018-12-02T08:08:22.488Z,12.21
2018-12-02T08:09:02.866Z,12.29
2018-12-02T08:09:43.344Z,12.37
2018-12-02T08:10:24.612Z,12.26
2018-12-02T08:11:05.948Z,12.26
2018-12-02T08:11:46.776Z,12.3
2018-12-02T08:12:27.220Z,12.3
2018-12-02T08:13:07.588Z,12.3
2018-12-02T08:13:48.010Z,12.29
2018-12-02T08:14:29.611Z,12.34
2018-12-02T08:15:09.990Z,12.33
2018-12-02T08:15:50.597Z,12.36
2018-12-02T08:16:30.908Z,12.37
2018-12-02T08:17:12.127Z,12.37
2018-12-02T08:17:52.661Z,12.44
2018-12-02T08:18:33.708Z,12.36
2018-12-02T08:19:14.687Z,12.3
2018-12-02T08:19:55.125Z,12.3
2018-12-02T08:20:35.515Z,12.36
2018-12-02T08:21:15.879Z,12.31
2018-12-02T08:21:57.886Z,12.37
2018-12-02T08:22:39.474Z,12.41
2018-12-02T08:23:21.397Z,12.44
2018-12-02T08:24:01.764Z,12.4
2018-12-02T08:24:42.727Z,12.48
2018-12-02T08:25:23.538Z,12.48
2018-12-02T08:26:11.301Z,12.41
2018-12-02T08:26:53.091Z,12.44
2018-12-02T08:27:34.502Z,12.44
2018-12-02T08:28:14.884Z,12.4
2018-12-02T08:28:55.326Z,12.46
2018-12-02T08:29:35.648Z,12.49
2018-12-02T08:30:16.246Z,12.49
2018-12-02T08:30:59.465Z,12.51
2018-12-02T08:31:40.766Z,12.58
2018-12-02T08:32:21.027Z,12.61
2018-12-02T08:33:02.676Z,12.62
2018-12-02T08:33:42.738Z,12.59
2018-12-02T08:34:23.177Z,12.58
2018-12-02T08:35:03.590Z,12.58
2018-12-02T08:35:47.180Z,12.56
2018-12-02T08:36:31.709Z,12.55
2018-12-02T08:37:12.255Z,12.56
2018-12-02T08:37:52.791Z,12.58
2018-12-02T08:38:35.876Z,12.58
2018-12-02T08:39:17.914Z,12.58
2018-12-02T08:39:59.861Z,12.63
2018-12-02T08:40:40.253Z,12.67
2018-12-02T08:41:20.629Z,12.58
2018-12-02T08:42:01.712Z,12.74
2018-12-02T08:42:42.365Z,12.56
2018-12-02T08:43:24.562Z,12.69
2018-12-02T08:44:04.819Z,12.74
2018-12-02T08:44:47.176Z,12.7
2018-12-02T08:45:27.501Z,12.74
2018-12-02T08:46:07.953Z,12.76
2018-12-02T08:46:49.233Z,12.69
2018-12-02T08:47:29.947Z,12.71
2018-12-02T08:48:10.214Z,12.71
2018-12-02T08:48:50.790Z,12.76
2018-12-02T08:49:31.341Z,12.76
2018-12-02T08:50:11.759Z,12.74
2018-12-02T08:50:52.130Z,12.76
2018-12-02T08:51:32.744Z,12.8
2018-12-02T08:52:13.948Z,12.76
2018-12-02T08:52:56.157Z,12.79
2018-12-02T08:53:36.369Z,12.81
2018-12-02T08:54:17.108Z,12.91
2018-12-02T08:55:00.389Z,12.91
2018-12-02T08:55:41.200Z,12.98
2018-12-02T08:56:22.650Z,12.98
2018-12-02T08:57:03.674Z,12.98
2018-12-02T08:57:44.566Z,12.98
2018-12-02T08:58:29.914Z,13.01
2018-12-02T08:59:10.245Z,12.98
2018-12-02T08:59:52.206Z,12.92
2018-12-02T09:00:32.804Z,13.12
2018-12-02T09:01:15.106Z,12.99
2018-12-02T09:01:55.493Z,13.01
2018-12-02T09:02:36.121Z,12.94
2018-12-02T09:03:16.374Z,12.92
2018-12-02T09:03:59.547Z,12.94
2018-12-02T09:04:41.649Z,12.99
2018-12-02T09:05:22.011Z,12.96
2018-12-02T09:06:03.911Z,13.01
2018-12-02T09:06:44.981Z,13.04
2018-12-02T09:07:25.371Z,13.04
2018-12-02T09:08:05.869Z,13.06
2018-12-02T09:08:46.211Z,13.13
2018-12-02T09:09:26.628Z,13.13
2018-12-02T09:10:07.821Z,13.13
2018-12-02T09:10:48.275Z,13.13
2018-12-02T09:11:28.627Z,13.16
2018-12-02T09:12:09.995Z,13.19
2018-12-02T09:12:50.679Z,13.17
2018-12-02T09:13:32.125Z,13.1
2018-12-02T09:14:13.535Z,13.07
2018-12-02T09:14:54.314Z,12.99
2018-12-02T09:15:34.408Z,12.94
2018-12-02T09:16:14.883Z,12.96
2018-12-02T09:16:56.847Z,12.96
2018-12-02T09:18:58.782Z,13.07
2018-12-02T09:19:50.765Z,13.16
2018-12-02T09:20:43.559Z,13.22
2018-12-02T09:21:30.714Z,13.31
2018-12-02T09:22:11.098Z,13.27
2018-12-02T09:22:51.437Z,13.28
2018-12-02T09:23:31.930Z,13.32
2018-12-02T09:24:12.304Z,13.38
2018-12-02T09:24:52.840Z,13.35
2018-12-02T09:25:33.127Z,13.29
2018-12-02T09:26:13.493Z,13.41
2018-12-02T09:26:56.329Z,13.35
2018-12-02T09:27:35.907Z,13.38
2018-12-02T09:28:16.378Z,13.41
2018-12-02T09:28:56.768Z,13.32
2018-12-02T09:29:37.144Z,13.44
2018-12-02T09:30:17.556Z,13.47
2018-12-02T09:30:58.910Z,13.59
2018-12-02T09:33:17.184Z,13.55
2018-12-02T09:33:57.348Z,13.46
2018-12-02T09:34:37.693Z,13.57
2018-12-02T09:35:18.098Z,13.51
2018-12-02T09:37:01.219Z,13.57
2018-12-02T09:37:56.884Z,13.48
2018-12-02T09:38:49.744Z,13.54
2018-12-02T09:41:13.664Z,13.54
2018-12-02T09:41:55.188Z,13.59
2018-12-02T09:42:35.590Z,13.55
2018-12-02T09:43:15.988Z,13.65
2018-12-02T09:43:56.369Z,13.59
2018-12-02T09:44:36.962Z,13.69
2018-12-02T09:45:17.340Z,13.61
2018-12-02T09:45:57.734Z,13.59
2018-12-02T09:46:38.173Z,13.71
2018-12-02T09:47:18.610Z,13.69
2018-12-02T09:47:58.984Z,13.75
2018-12-02T09:48:39.871Z,13.75
2018-12-02T09:49:19.901Z,13.86
2018-12-02T09:50:00.662Z,13.86
2018-12-02T09:53:17.837Z,13.96
2018-12-02T09:54:09.836Z,13.94
2018-12-02T09:55:01.888Z,13.94
2018-12-02T09:57:11.875Z,14.05
2018-12-02T09:58:04.658Z,14.08
2018-12-02T09:58:57.036Z,14.09
2018-12-02T09:59:49.539Z,14.13
2018-12-02T10:00:42.051Z,14.19
2018-12-02T10:01:35.504Z,14.09
2018-12-02T10:02:28.734Z,14.19
2018-12-02T10:03:21.059Z,14.17
2018-12-02T10:04:13.540Z,14.23
2018-12-02T10:05:04.772Z,14.29
2018-12-02T10:05:56.819Z,14.26
2018-12-02T10:06:49.410Z,14.26
2018-12-02T10:07:40.253Z,14.24
2018-12-02T10:09:22.747Z,14.23
2018-12-02T10:10:14.982Z,14.31
2018-12-02T10:11:08.984Z,14.21
2018-12-02T10:12:00.886Z,14.29
2018-12-02T10:12:53.428Z,14.3
2018-12-02T10:13:46.013Z,14.38
2018-12-02T10:14:38.649Z,14.41
2018-12-02T10:15:31.524Z,14.39
2018-12-02T10:16:24.046Z,14.39
2018-12-02T10:17:16.113Z,14.42
2018-12-02T10:18:08.281Z,14.42
2018-12-02T10:19:00.610Z,14.42
2018-12-02T10:19:52.940Z,14.41
2018-12-02T10:20:45.540Z,14.49
2018-12-02T10:21:37.004Z,14.41